createdAt,value
2022-10-13T00:00:34.381Z,4.30
2022-10-13T00:03:22.708Z,5.17
2022-10-13T00:06:11.215Z,4.63
2022-10-13T00:08:59.593Z,5.33
2022-10-13T00:11:46.133Z,4.50
2022-10-13T00:14:32.991Z,5.03
2022-10-13T00:17:19.881Z,4.67
2022-10-13T00:20:08.819Z,5.00
2022-10-13T00:22:55.290Z,5.10
2022-10-13T00:25:43.332Z,4.97
2022-10-13T00:28:30.247Z,4.43
2022-10-13T00:31:18.945Z,5.10
2022-10-13T00:34:05.678Z,4.33
2022-10-13T00:36:53.586Z,4.73
2022-10-13T00:39:40.443Z,4.37
2022-10-13T00:42:27.258Z,4.73
2022-10-13T00:45:23.531Z,4.63
2022-10-13T00:48:10.500Z,4.10
2022-10-13T00:50:59.308Z,4.77
2022-10-13T00:53:49.104Z,4.97
2022-10-13T00:56:37.601Z,4.90
2022-10-13T00:59:29.042Z,4.70
2022-10-13T01:02:16.142Z,5.17
2022-10-13T01:05:05.014Z,4.40
2022-10-13T01:07:52.635Z,4.93
2022-10-13T01:10:50.312Z,4.83
2022-10-13T01:13:43.633Z,5.17
2022-10-13T01:16:40.845Z,5.00
2022-10-13T01:19:45.887Z,4.10
2022-10-13T01:22:49.892Z,4.13
2022-10-13T01:25:55.197Z,4.57
2022-10-13T01:29:03.300Z,4.57
2022-10-13T01:32:00.240Z,5.20
2022-10-13T01:34:53.964Z,4.73
2022-10-13T01:37:47.027Z,4.50
2022-10-13T01:40:41.017Z,5.17
2022-10-13T01:43:32.056Z,4.80
2022-10-13T01:46:23.953Z,5.07
2022-10-13T01:49:15.861Z,5.00
2022-10-13T01:52:05.476Z,5.57
2022-10-13T01:54:52.943Z,5.90
2022-10-13T01:57:42.533Z,5.23
2022-10-13T02:00:32.639Z,5.60
2022-10-13T02:03:24.584Z,5.70
2022-10-13T02:06:19.439Z,5.73
2022-10-13T02:09:12.159Z,6.23
2022-10-13T02:12:03.141Z,6.37
2022-10-13T02:14:51.906Z,5.57
2022-10-13T02:17:38.407Z,6.23
2022-10-13T02:20:25.101Z,6.00
2022-10-13T02:23:16.324Z,6.63
2022-10-13T02:26:03.514Z,5.97
2022-10-13T02:28:50.376Z,6.23
2022-10-13T02:31:36.842Z,6.50
2022-10-13T02:34:23.419Z,6.13
2022-10-13T02:37:10.288Z,6.63
2022-10-13T02:39:58.097Z,6.50
2022-10-13T02:42:45.235Z,6.33
2022-10-13T02:45:31.748Z,6.67
2022-10-13T02:48:18.126Z,6.80
2022-10-13T02:51:04.892Z,5.80
2022-10-13T02:53:51.473Z,6.10
2022-10-13T02:56:39.295Z,6.17
2022-10-13T02:59:25.983Z,6.43
2022-10-13T03:02:12.610Z,5.87
2022-10-13T03:04:59.085Z,6.07
2022-10-13T03:07:45.849Z,6.53
2022-10-13T03:10:33.161Z,6.90
2022-10-13T03:13:21.383Z,6.70
2022-10-13T03:16:08.000Z,6.90
2022-10-13T03:18:54.483Z,7.43
2022-10-13T03:21:41.290Z,7.17
2022-10-13T03:24:28.035Z,7.40
2022-10-13T03:27:14.534Z,7.07
2022-10-13T03:30:02.595Z,6.60
2022-10-13T03:32:48.920Z,6.73
2022-10-13T03:35:35.296Z,7.77
2022-10-13T03:38:21.899Z,7.17
2022-10-13T03:41:09.629Z,6.53
2022-10-13T03:43:56.117Z,7.40
2022-10-13T03:46:44.646Z,7.70
2022-10-13T03:49:30.987Z,7.20
2022-10-13T03:52:17.868Z,7.33
2022-10-13T03:55:05.626Z,7.70
2022-10-13T03:57:52.484Z,6.80
2022-10-13T04:00:38.876Z,7.00
2022-10-13T04:03:26.828Z,7.30
2022-10-13T04:06:13.693Z,9.33
2022-10-13T04:09:00.131Z,9.13
2022-10-13T04:11:46.592Z,8.80
2022-10-13T04:14:33.169Z,9.83
2022-10-13T04:17:19.528Z,7.90
2022-10-13T04:20:08.800Z,8.17
2022-10-13T04:22:55.719Z,7.00
2022-10-13T04:25:42.179Z,7.63
2022-10-13T04:28:28.612Z,6.70
2022-10-13T04:31:15.637Z,7.37
2022-10-13T04:34:02.601Z,7.53
2022-10-13T04:36:52.508Z,7.60
2022-10-13T04:39:39.180Z,7.63
2022-10-13T04:42:25.654Z,8.00
2022-10-13T04:45:12.357Z,7.23
2022-10-13T04:47:58.945Z,7.50
2022-10-13T04:50:45.472Z,7.60
2022-10-13T04:53:33.891Z,7.67
2022-10-13T04:56:20.310Z,7.73
2022-10-13T04:59:06.844Z,7.50
2022-10-13T05:01:53.310Z,7.97
2022-10-13T05:04:39.934Z,7.37
2022-10-13T05:07:26.583Z,7.70
2022-10-13T05:10:14.915Z,7.20
2022-10-13T05:13:01.725Z,7.60
2022-10-13T05:15:48.231Z,8.00
2022-10-13T05:18:34.909Z,8.40
2022-10-13T05:21:23.418Z,9.10
2022-10-13T05:24:13.508Z,8.53
2022-10-13T05:27:01.652Z,8.40
2022-10-13T05:29:48.448Z,8.30
2022-10-13T05:32:36.589Z,8.90
2022-10-13T05:35:23.182Z,8.77
2022-10-13T05:38:10.199Z,7.57
2022-10-13T05:40:56.612Z,7.17
2022-10-13T05:43:44.536Z,8.27
2022-10-13T05:46:31.596Z,8.60
2022-10-13T05:49:18.315Z,8.33
2022-10-13T05:52:08.204Z,8.67
2022-10-13T05:54:57.631Z,8.63
2022-10-13T05:57:46.899Z,7.73
2022-10-13T06:00:35.297Z,8.43
2022-10-13T06:03:24.412Z,8.90
2022-10-13T06:06:11.257Z,8.53
2022-10-13T06:08:57.796Z,7.97
2022-10-13T06:11:44.612Z,9.33
2022-10-13T06:14:30.945Z,8.63
2022-10-13T06:17:18.768Z,9.70
2022-10-13T06:20:06.620Z,8.57
2022-10-13T06:22:53.165Z,9.13
2022-10-13T06:25:39.532Z,10.00
2022-10-13T06:28:26.299Z,9.30
2022-10-13T06:31:13.356Z,10.10
2022-10-13T06:34:01.789Z,8.83
2022-10-13T06:36:48.307Z,8.93
2022-10-13T06:39:35.022Z,9.70
2022-10-13T06:42:21.958Z,8.40
2022-10-13T06:45:09.802Z,9.90
2022-10-13T06:47:56.346Z,9.33
2022-10-13T06:50:44.162Z,7.90
2022-10-13T06:53:31.239Z,8.17
2022-10-13T06:56:17.813Z,9.73
2022-10-13T06:59:04.369Z,8.67
2022-10-13T07:01:51.815Z,9.50
2022-10-13T07:04:38.380Z,8.80
2022-10-13T07:07:26.491Z,10.57
2022-10-13T07:10:13.113Z,9.50
2022-10-13T07:12:59.540Z,9.13
2022-10-13T07:15:46.307Z,8.93
2022-10-13T07:18:33.375Z,8.90
2022-10-13T07:21:20.096Z,9.03
2022-10-13T07:24:10.066Z,7.60
2022-10-13T07:26:56.701Z,7.97
2022-10-13T07:29:43.219Z,8.00
2022-10-13T07:32:29.837Z,8.27
2022-10-13T07:35:16.361Z,8.40
2022-10-13T07:38:02.775Z,8.70
2022-10-13T07:40:50.875Z,8.03
2022-10-13T07:43:37.763Z,8.10
2022-10-13T07:46:25.436Z,8.53
2022-10-13T07:49:15.254Z,8.50
2022-10-13T07:52:03.071Z,8.00
2022-10-13T07:54:49.678Z,7.77
2022-10-13T07:57:37.371Z,7.50
2022-10-13T08:00:24.174Z,7.80
2022-10-13T08:03:10.740Z,7.57
2022-10-13T08:05:59.331Z,7.73
2022-10-13T08:08:45.748Z,7.97
2022-10-13T08:11:32.864Z,8.83
2022-10-13T08:14:21.324Z,8.43
2022-10-13T08:17:07.681Z,8.17
2022-10-13T08:19:54.215Z,8.43
2022-10-13T08:22:40.727Z,9.27
2022-10-13T08:25:27.217Z,9.30
2022-10-13T08:28:19.864Z,8.23
2022-10-13T08:31:08.447Z,8.27
2022-10-13T08:33:55.121Z,7.40
2022-10-13T08:36:42.748Z,8.47
2022-10-13T08:39:29.455Z,8.63
2022-10-13T08:42:19.335Z,8.47
2022-10-13T08:45:40.419Z,7.77
2022-10-13T08:48:19.869Z,8.67
2022-10-13T08:51:08.594Z,8.30
2022-10-13T08:53:55.084Z,7.43
2022-10-13T08:56:41.549Z,8.43
2022-10-13T08:59:27.983Z,7.00
2022-10-13T09:02:22.917Z,6.90
2022-10-13T09:05:17.507Z,7.53
2022-10-13T09:08:06.427Z,7.60
2022-10-13T09:10:53.925Z,6.87
2022-10-13T09:13:41.201Z,6.90
2022-10-13T09:16:30.547Z,6.33
2022-10-13T09:19:27.564Z,7.40
2022-10-13T09:22:25.186Z,7.23
2022-10-13T09:25:20.548Z,7.37
2022-10-13T09:28:15.057Z,7.97
2022-10-13T09:31:04.990Z,7.70
2022-10-13T09:34:00.680Z,8.40
2022-10-13T09:36:58.179Z,7.60
2022-10-13T09:39:45.989Z,7.00
2022-10-13T09:42:33.260Z,8.57
2022-10-13T09:45:23.399Z,8.07
2022-10-13T09:48:23.416Z,8.30
2022-10-13T09:51:42.774Z,7.93
2022-10-13T09:54:38.524Z,7.90
2022-10-13T09:57:36.016Z,7.43
2022-10-13T10:00:24.485Z,8.00
2022-10-13T10:03:17.683Z,8.00
2022-10-13T10:06:07.841Z,7.43
2022-10-13T10:09:03.368Z,7.37
2022-10-13T10:11:52.988Z,7.67
2022-10-13T10:14:41.148Z,7.93
2022-10-13T10:17:33.312Z,8.67
2022-10-13T10:20:38.363Z,9.03
2022-10-13T10:23:38.100Z,8.07
2022-10-13T10:26:32.804Z,7.63
2022-10-13T10:29:27.260Z,7.97
2022-10-13T10:32:28.439Z,7.90
2022-10-13T10:35:21.038Z,7.30
2022-10-13T10:38:22.031Z,7.57
2022-10-13T10:41:17.619Z,6.77
2022-10-13T10:44:08.704Z,6.50
2022-10-13T10:47:00.491Z,6.83
2022-10-13T10:49:49.287Z,6.97
2022-10-13T10:52:55.232Z,6.73
2022-10-13T10:55:49.859Z,7.17
2022-10-13T10:58:42.946Z,6.90
2022-10-13T11:01:37.502Z,7.80
2022-10-13T11:04:40.712Z,7.50
2022-10-13T11:07:58.004Z,6.83
2022-10-13T11:10:44.707Z,7.07
2022-10-13T11:13:31.363Z,6.90
2022-10-13T11:16:29.876Z,8.17
2022-10-13T11:19:33.015Z,6.97
2022-10-13T11:22:22.145Z,6.90
2022-10-13T11:25:39.953Z,6.10
2022-10-13T11:28:48.842Z,6.77
2022-10-13T11:31:55.067Z,6.37
2022-10-13T11:34:59.040Z,6.57
2022-10-13T11:38:05.982Z,6.73
2022-10-13T11:41:13.371Z,7.70
2022-10-13T11:44:05.344Z,7.87
2022-10-13T11:47:03.758Z,8.17
2022-10-13T11:50:05.019Z,7.20
2022-10-13T11:53:07.980Z,7.63
2022-10-13T11:55:56.643Z,7.43
2022-10-13T11:58:44.630Z,7.13
2022-10-13T12:01:31.415Z,7.47
2022-10-13T12:04:22.709Z,7.33
2022-10-13T12:07:11.836Z,7.20
2022-10-13T12:09:58.897Z,7.20
2022-10-13T12:12:49.498Z,7.27
2022-10-13T12:15:39.967Z,7.43
2022-10-13T12:18:29.890Z,7.23
2022-10-13T12:21:19.988Z,7.40
2022-10-13T12:24:11.201Z,7.80
2022-10-13T12:26:58.740Z,7.07
2022-10-13T12:29:45.173Z,7.47
2022-10-13T12:32:35.924Z,7.50
2022-10-13T12:35:26.619Z,7.47
2022-10-13T12:38:19.563Z,7.50
2022-10-13T12:41:06.834Z,6.73
2022-10-13T12:43:54.362Z,6.80
2022-10-13T12:46:42.455Z,6.87
2022-10-13T12:49:32.130Z,6.90
2022-10-13T12:52:24.756Z,6.80
2022-10-13T12:55:18.157Z,7.03
2022-10-13T12:58:04.920Z,7.23
2022-10-13T13:01:02.206Z,6.70
2022-10-13T13:03:57.300Z,6.70
2022-10-13T13:06:56.439Z,6.83
2022-10-13T13:09:42.878Z,6.30
2022-10-13T13:12:30.062Z,7.00
2022-10-13T13:15:34.994Z,6.57
2022-10-13T13:18:36.296Z,7.23
2022-10-13T13:21:23.142Z,6.77
2022-10-13T13:24:21.846Z,6.30
2022-10-13T13:27:26.296Z,6.23
2022-10-13T13:30:15.233Z,6.37
2022-10-13T13:33:01.746Z,6.40
2022-10-13T13:35:49.061Z,6.33
2022-10-13T13:38:35.777Z,6.10
2022-10-13T13:41:24.117Z,5.70
2022-10-13T13:44:10.612Z,5.73
2022-10-13T13:46:57.067Z,6.40
2022-10-13T13:49:43.568Z,5.30
2022-10-13T13:52:30.339Z,5.77
2022-10-13T13:55:17.491Z,6.40
2022-10-13T13:58:05.558Z,5.60
2022-10-13T14:00:52.292Z,5.97
2022-10-13T14:03:39.003Z,5.57
2022-10-13T14:06:25.946Z,5.83
2022-10-13T14:09:12.240Z,5.43
2022-10-13T14:11:59.196Z,4.00
2022-10-13T14:14:47.363Z,5.13
2022-10-13T14:17:33.975Z,5.63
2022-10-13T14:20:20.763Z,5.20
2022-10-13T14:23:07.445Z,4.43
2022-10-13T14:25:54.115Z,5.30
2022-10-13T14:28:41.945Z,5.73
2022-10-13T14:31:30.635Z,4.87
2022-10-13T14:34:17.250Z,5.17
2022-10-13T14:37:03.677Z,4.63
2022-10-13T14:39:50.200Z,5.10
2022-10-13T14:42:36.703Z,5.23
2022-10-13T14:45:23.049Z,5.33
2022-10-13T14:48:11.833Z,5.53
2022-10-13T14:50:58.710Z,5.17
2022-10-13T14:53:46.706Z,5.57
2022-10-13T14:56:33.526Z,5.47
2022-10-13T14:59:20.667Z,5.37
2022-10-13T15:02:07.452Z,5.03
2022-10-13T15:04:55.324Z,5.47
2022-10-13T15:07:42.165Z,5.70
2022-10-13T15:10:28.962Z,5.83
2022-10-13T15:13:15.335Z,5.83
2022-10-13T15:16:02.508Z,5.97
2022-10-13T15:18:49.376Z,5.87
2022-10-13T15:21:37.444Z,5.10
2022-10-13T15:24:24.173Z,5.50
2022-10-13T15:27:10.668Z,5.13
2022-10-13T15:29:57.211Z,5.60
2022-10-13T15:32:43.704Z,6.10
2022-10-13T15:35:31.117Z,5.90
2022-10-13T15:38:20.595Z,5.50
2022-10-13T15:41:08.100Z,5.73
2022-10-13T15:43:54.584Z,6.10
2022-10-13T15:46:53.955Z,5.40
2022-10-13T15:49:47.846Z,6.93
2022-10-13T15:52:39.348Z,5.80
2022-10-13T15:55:28.682Z,6.33
2022-10-13T15:58:15.213Z,6.07
2022-10-13T16:01:01.927Z,5.67
2022-10-13T16:03:48.709Z,6.27
2022-10-13T16:06:37.240Z,5.60
2022-10-13T16:09:23.916Z,7.23
2022-10-13T16:12:11.868Z,5.87
2022-10-13T16:14:58.344Z,6.33
2022-10-13T16:17:46.222Z,6.00
2022-10-13T16:20:35.390Z,6.10
2022-10-13T16:23:21.928Z,6.10
2022-10-13T16:26:09.040Z,5.37
2022-10-13T16:28:58.106Z,6.10
2022-10-13T16:31:45.125Z,5.97
2022-10-13T16:34:31.857Z,5.70
2022-10-13T16:37:18.526Z,5.80
2022-10-13T16:40:05.892Z,5.37
2022-10-13T16:42:52.292Z,6.17
2022-10-13T16:45:58.549Z,5.83
2022-10-13T16:48:46.713Z,6.03
2022-10-13T16:51:33.982Z,6.50
2022-10-13T16:54:20.416Z,5.60
2022-10-13T16:57:06.871Z,5.90
2022-10-13T16:59:53.505Z,6.20
2022-10-13T17:02:41.731Z,7.50
2022-10-13T17:05:28.596Z,7.30
2022-10-13T17:08:15.448Z,7.63
2022-10-13T17:11:02.295Z,7.07
2022-10-13T17:13:49.772Z,7.40
2022-10-13T17:16:36.762Z,8.23
2022-10-13T17:19:24.654Z,7.40
2022-10-13T17:22:11.193Z,9.10
2022-10-13T17:24:57.742Z,8.70
2022-10-13T17:27:44.499Z,10.13
2022-10-13T17:30:30.922Z,11.67
2022-10-13T17:33:17.353Z,10.50
2022-10-13T17:36:08.156Z,9.37
2022-10-13T17:38:57.256Z,9.03
2022-10-13T17:41:43.676Z,9.40
2022-10-13T17:44:30.189Z,8.90
2022-10-13T17:47:16.716Z,9.20
2022-10-13T17:50:03.132Z,9.77
2022-10-13T17:52:51.021Z,8.90
2022-10-13T17:55:37.865Z,8.80
2022-10-13T17:58:24.289Z,8.83
2022-10-13T18:01:13.996Z,13.27
2022-10-13T18:04:02.108Z,9.33
2022-10-13T18:06:49.316Z,9.57
2022-10-13T18:09:37.165Z,9.67
2022-10-13T18:12:23.961Z,9.03
2022-10-13T18:15:10.778Z,8.77
2022-10-13T18:17:57.610Z,9.90
2022-10-13T18:20:44.059Z,10.30
2022-10-13T18:23:32.444Z,9.47
2022-10-13T18:26:21.425Z,10.43
2022-10-13T18:29:09.737Z,11.13
2022-10-13T18:31:57.373Z,10.13
2022-10-13T18:34:44.193Z,10.73
2022-10-13T18:37:30.749Z,10.80
2022-10-13T18:40:17.299Z,10.73
2022-10-13T18:43:05.400Z,11.17
2022-10-13T18:45:52.095Z,10.83
2022-10-13T18:48:38.649Z,12.13
2022-10-13T18:51:25.744Z,11.23
2022-10-13T18:54:12.800Z,10.67
2022-10-13T18:56:59.609Z,11.67
2022-10-13T18:59:47.417Z,10.73
2022-10-13T19:02:34.437Z,11.20
2022-10-13T19:05:21.248Z,10.80
2022-10-13T19:08:09.495Z,10.60
2022-10-13T19:10:56.372Z,11.60
2022-10-13T19:13:44.100Z,10.83
2022-10-13T19:16:33.610Z,10.37
2022-10-13T19:19:20.487Z,11.93
2022-10-13T19:22:09.941Z,10.43
2022-10-13T19:24:56.469Z,11.57
2022-10-13T19:27:43.033Z,11.47
2022-10-13T19:30:29.732Z,11.87
2022-10-13T19:33:18.968Z,12.07
2022-10-13T19:36:06.255Z,11.23
2022-10-13T19:38:52.784Z,11.03
2022-10-13T19:41:39.472Z,11.37
2022-10-13T19:44:26.231Z,11.43
2022-10-13T19:47:13.061Z,11.57
2022-10-13T19:50:00.853Z,12.03
2022-10-13T19:52:47.794Z,11.87
2022-10-13T19:55:39.179Z,11.23
2022-10-13T19:58:25.904Z,11.47
2022-10-13T20:01:12.336Z,12.07
2022-10-13T20:03:59.465Z,12.53
2022-10-13T20:06:48.872Z,12.30
2022-10-13T20:09:35.434Z,12.07
2022-10-13T20:12:22.212Z,11.87
2022-10-13T20:15:09.038Z,12.07
2022-10-13T20:17:55.481Z,12.47
2022-10-13T20:20:42.981Z,12.17
2022-10-13T20:23:31.304Z,11.87
2022-10-13T20:26:18.352Z,11.93
2022-10-13T20:29:04.898Z,12.33
2022-10-13T20:31:51.868Z,12.30
2022-10-13T20:34:38.528Z,12.33
2022-10-13T20:37:24.808Z,11.53
2022-10-13T20:40:13.301Z,11.83
2022-10-13T20:42:59.968Z,11.87
2022-10-13T20:45:46.282Z,11.70
2022-10-13T20:48:51.217Z,12.23
2022-10-13T20:51:40.096Z,11.50
2022-10-13T20:54:26.948Z,11.93
2022-10-13T20:57:14.837Z,11.43
2022-10-13T21:00:01.736Z,11.80
2022-10-13T21:02:48.699Z,11.63
2022-10-13T21:05:35.074Z,11.37
2022-10-13T21:08:22.937Z,10.60
2022-10-13T21:11:11.955Z,11.30
2022-10-13T21:13:59.960Z,10.80
2022-10-13T21:16:46.570Z,11.30
2022-10-13T21:19:33.025Z,11.13
2022-10-13T21:22:19.528Z,11.10
2022-10-13T21:25:06.675Z,10.80
2022-10-13T21:27:53.547Z,9.97
2022-10-13T21:30:41.688Z,10.80
2022-10-13T21:33:28.512Z,10.40
2022-10-13T21:36:17.053Z,10.37
2022-10-13T21:39:06.739Z,10.00
2022-10-13T21:41:53.408Z,9.83
2022-10-13T21:44:39.954Z,10.03
2022-10-13T21:47:30.830Z,9.53
2022-10-13T21:50:17.281Z,9.40
2022-10-13T21:53:04.023Z,10.43
2022-10-13T21:55:50.468Z,9.33
2022-10-13T21:58:37.071Z,9.77
2022-10-13T22:01:25.197Z,10.07
2022-10-13T22:04:14.447Z,9.87
2022-10-13T22:07:00.726Z,9.80
2022-10-13T22:09:47.100Z,10.07
2022-10-13T22:12:33.523Z,10.33
2022-10-13T22:15:20.028Z,9.20
2022-10-13T22:18:06.677Z,8.93
2022-10-13T22:20:54.788Z,9.63
2022-10-13T22:23:42.027Z,8.60
2022-10-13T22:26:30.207Z,9.37
2022-10-13T22:29:19.204Z,9.63
2022-10-13T22:32:05.961Z,9.50
2022-10-13T22:34:52.260Z,9.93
2022-10-13T22:37:40.114Z,9.53
2022-10-13T22:40:26.881Z,9.50
2022-10-13T22:43:13.362Z,9.63
2022-10-13T22:46:01.916Z,9.10
2022-10-13T22:48:48.920Z,9.43
2022-10-13T22:51:37.130Z,9.43
2022-10-13T22:54:25.124Z,9.33
2022-10-13T22:57:11.947Z,9.20
2022-10-13T22:59:58.668Z,10.17
2022-10-13T23:02:45.347Z,9.40
2022-10-13T23:05:32.235Z,8.57
2022-10-13T23:08:18.784Z,9.17
2022-10-13T23:11:06.847Z,9.53
2022-10-13T23:13:53.679Z,9.63
2022-10-13T23:16:40.181Z,8.93
2022-10-13T23:19:26.988Z,9.50
2022-10-13T23:22:13.683Z,9.87
2022-10-13T23:25:00.183Z,9.47
2022-10-13T23:27:48.083Z,9.40
2022-10-13T23:30:34.752Z,9.33
2022-10-13T23:33:21.238Z,9.53
2022-10-13T23:36:09.519Z,9.90
2022-10-13T23:38:56.902Z,10.20
2022-10-13T23:41:43.308Z,10.40
2022-10-13T23:44:31.038Z,10.57
2022-10-13T23:47:17.649Z,10.50
2022-10-13T23:50:04.427Z,10.47
2022-10-13T23:52:51.248Z,9.87
2022-10-13T23:55:38.903Z,11.50
2022-10-13T23:58:25.630Z,10.73
